createdAt,value
2023-03-16T00:01:08.294Z,99381.00
2023-03-16T00:03:36.320Z,99391.25
2023-03-16T00:06:03.665Z,99390.38
2023-03-16T00:08:30.890Z,99372.66
2023-03-16T00:10:57.998Z,99370.03
2023-03-16T00:13:25.786Z,99367.53
2023-03-16T00:16:04.304Z,99383.50
2023-03-16T00:18:31.389Z,99382.72
2023-03-16T00:21:03.894Z,99379.25
2023-03-16T00:23:35.510Z,99380.97
2023-03-16T00:26:07.588Z,99390.34
2023-03-16T00:28:35.949Z,99385.34
2023-03-16T00:31:11.822Z,99377.63
2023-03-16T00:33:39.850Z,99384.38
2023-03-16T00:36:09.414Z,99379.31
2023-03-16T00:38:39.654Z,99384.44
2023-03-16T00:41:09.132Z,99378.63
2023-03-16T00:43:40.893Z,99383.56
2023-03-16T00:46:14.939Z,99387.81
2023-03-16T00:48:45.037Z,99304.00
2023-03-16T00:51:15.759Z,99393.75
2023-03-16T00:53:45.535Z,99359.00
2023-03-16T00:56:12.703Z,99376.09
2023-03-16T00:58:42.950Z,99374.44
2023-03-16T01:01:20.026Z,99390.53
2023-03-16T01:03:47.343Z,99373.69
2023-03-16T01:06:17.304Z,99389.75
2023-03-16T01:08:45.048Z,99388.13
2023-03-16T01:11:21.850Z,99386.47
2023-03-16T01:13:50.338Z,99400.94
2023-03-16T01:16:18.882Z,99392.50
2023-03-16T01:18:46.559Z,99392.44
2023-03-16T01:21:16.273Z,99389.00
2023-03-16T01:23:44.156Z,99380.53
2023-03-16T01:26:11.587Z,99390.75
2023-03-16T01:28:38.971Z,99354.34
2023-03-16T01:31:09.948Z,99372.97
2023-03-16T01:33:37.389Z,99385.69
2023-03-16T01:36:16.690Z,99392.50
2023-03-16T01:38:43.738Z,99391.69
2023-03-16T01:41:11.242Z,99383.22
2023-03-16T01:43:40.832Z,99384.84
2023-03-16T01:46:07.614Z,99376.31
2023-03-16T01:49:25.126Z,99380.66
2023-03-16T01:51:58.355Z,99376.31
2023-03-16T01:54:33.879Z,99367.91
2023-03-16T01:57:15.342Z,99333.13
2023-03-16T01:59:50.471Z,99363.53
2023-03-16T02:02:22.033Z,99365.28
2023-03-16T02:05:16.108Z,99355.16
2023-03-16T02:07:58.665Z,99365.25
2023-03-16T02:10:28.297Z,99360.19
2023-03-16T02:12:55.732Z,99363.63
2023-03-16T02:15:22.888Z,99342.41
2023-03-16T02:17:50.659Z,99361.91
2023-03-16T02:20:42.942Z,99358.53
2023-03-16T02:23:20.010Z,99353.47
2023-03-16T02:26:15.889Z,99347.44
2023-03-16T02:29:19.378Z,99346.56
2023-03-16T02:31:46.914Z,99328.78
2023-03-16T02:34:16.954Z,99338.91
2023-03-16T02:36:46.778Z,99331.28
2023-03-16T02:39:13.962Z,99278.75
2023-03-16T02:41:41.778Z,99327.88
2023-03-16T02:44:16.749Z,99335.50
2023-03-16T02:46:45.541Z,99337.22
2023-03-16T02:49:21.839Z,99342.31
2023-03-16T02:51:48.698Z,99347.41
2023-03-16T02:54:15.520Z,99339.72
2023-03-16T02:56:42.504Z,99341.44
2023-03-16T02:59:09.775Z,99344.00
2023-03-16T03:01:36.672Z,99319.41
2023-03-16T03:04:05.257Z,99316.88
2023-03-16T03:06:32.678Z,99338.91
2023-03-16T03:09:02.006Z,99332.13
2023-03-16T03:11:29.475Z,99329.56
2023-03-16T03:13:56.990Z,99318.50
2023-03-16T03:16:25.534Z,99323.56
2023-03-16T03:18:54.892Z,99318.44
2023-03-16T03:21:22.073Z,99316.81
2023-03-16T03:23:48.884Z,99313.44
2023-03-16T03:26:16.759Z,99322.78
2023-03-16T03:28:44.696Z,99321.94
2023-03-16T03:31:21.531Z,99316.91
2023-03-16T03:33:48.920Z,99313.56
2023-03-16T03:36:15.837Z,99302.53
2023-03-16T03:38:43.536Z,99319.41
2023-03-16T03:41:10.448Z,99315.19
2023-03-16T03:43:37.252Z,99304.06
2023-03-16T03:46:04.633Z,99285.44
2023-03-16T03:48:31.606Z,99301.53
2023-03-16T03:50:58.654Z,99276.13
2023-03-16T03:53:25.479Z,99299.94
2023-03-16T03:55:52.376Z,99296.44
2023-03-16T03:58:19.310Z,99277.00
2023-03-16T04:00:46.808Z,99283.75
2023-03-16T04:03:14.213Z,99299.84
2023-03-16T04:05:41.101Z,99266.75
2023-03-16T04:08:07.898Z,99291.28
2023-03-16T04:10:34.743Z,99294.72
2023-03-16T04:13:01.798Z,99271.03
2023-03-16T04:15:28.625Z,99263.34
2023-03-16T04:17:55.437Z,99280.34
2023-03-16T04:20:23.539Z,99277.78
2023-03-16T04:22:58.189Z,99290.56
2023-03-16T04:25:26.752Z,99283.69
2023-03-16T04:27:53.625Z,99289.66
2023-03-16T04:30:20.636Z,99288.84
2023-03-16T04:32:47.540Z,99292.19
2023-03-16T04:35:16.131Z,99276.94
2023-03-16T04:37:42.988Z,99270.94
2023-03-16T04:40:17.455Z,99261.59
2023-03-16T04:42:46.104Z,99262.34
2023-03-16T04:45:14.293Z,99258.91
2023-03-16T04:47:41.636Z,99232.69
2023-03-16T04:50:10.456Z,99243.78
2023-03-16T04:52:37.474Z,99246.47
2023-03-16T04:55:04.746Z,99265.84
2023-03-16T04:57:32.318Z,99253.13
2023-03-16T04:59:59.145Z,99247.22
2023-03-16T05:02:26.013Z,99274.41
2023-03-16T05:04:52.878Z,99272.69
2023-03-16T05:07:19.816Z,99275.25
2023-03-16T05:09:46.656Z,99277.81
2023-03-16T05:12:13.511Z,99261.72
2023-03-16T05:14:40.357Z,99260.81
2023-03-16T05:17:07.183Z,99245.63
2023-03-16T05:19:33.976Z,99254.94
2023-03-16T05:22:00.807Z,99268.50
2023-03-16T05:24:27.618Z,99268.47
2023-03-16T05:26:54.457Z,99238.81
2023-03-16T05:29:21.310Z,99267.63
2023-03-16T05:31:48.124Z,99266.78
2023-03-16T05:34:15.398Z,99265.13
2023-03-16T05:36:44.963Z,99249.03
2023-03-16T05:39:11.865Z,99256.69
2023-03-16T05:41:38.978Z,99254.06
2023-03-16T05:44:06.056Z,99248.94
2023-03-16T05:46:33.449Z,99263.38
2023-03-16T05:49:00.518Z,99260.00
2023-03-16T05:51:27.419Z,99255.75
2023-03-16T05:53:57.994Z,99244.72
2023-03-16T05:56:27.457Z,99232.88
2023-03-16T05:58:55.851Z,99234.56
2023-03-16T06:01:23.662Z,99225.19
2023-03-16T06:03:51.921Z,99253.97
2023-03-16T06:06:22.426Z,99225.28
2023-03-16T06:08:49.305Z,99253.97
2023-03-16T06:11:16.533Z,99258.25
2023-03-16T06:13:43.406Z,99256.53
2023-03-16T06:16:13.711Z,99250.59
2023-03-16T06:18:41.211Z,99221.84
2023-03-16T06:21:08.134Z,99215.94
2023-03-16T06:23:35.160Z,99260.84
2023-03-16T06:26:02.061Z,99240.38
2023-03-16T06:28:29.991Z,99241.22
2023-03-16T06:30:58.029Z,99240.34
2023-03-16T06:33:25.467Z,99255.56
2023-03-16T06:35:52.659Z,99257.25
2023-03-16T06:38:20.139Z,99256.34
2023-03-16T06:40:51.885Z,99263.97
2023-03-16T06:43:18.800Z,99225.88
2023-03-16T06:45:45.975Z,99245.38
2023-03-16T06:48:12.884Z,99261.41
2023-03-16T06:50:39.670Z,99263.06
2023-03-16T06:53:06.479Z,99238.44
2023-03-16T06:55:33.371Z,99247.72
2023-03-16T06:58:00.172Z,99251.91
2023-03-16T07:00:27.340Z,99255.28
2023-03-16T07:02:54.676Z,99263.75
2023-03-16T07:05:21.489Z,99273.06
2023-03-16T07:07:48.331Z,99256.81
2023-03-16T07:10:18.091Z,99254.22
2023-03-16T07:12:45.673Z,99254.19
2023-03-16T07:15:13.785Z,99249.88
2023-03-16T07:17:41.027Z,99240.53
2023-03-16T07:20:10.887Z,99259.94
2023-03-16T07:22:39.481Z,99263.31
2023-03-16T07:25:07.879Z,99246.38
2023-03-16T07:27:34.755Z,99259.84
2023-03-16T07:30:01.602Z,99268.28
2023-03-16T07:32:28.530Z,99255.50
2023-03-16T07:34:57.443Z,99263.88
2023-03-16T07:37:26.244Z,99274.94
2023-03-16T07:39:53.231Z,99257.84
2023-03-16T07:42:20.078Z,99254.31
2023-03-16T07:44:46.936Z,99257.59
2023-03-16T07:47:14.381Z,99239.81
2023-03-16T07:49:41.790Z,99248.22
2023-03-16T07:52:08.958Z,99254.97
2023-03-16T07:54:36.094Z,99238.03
2023-03-16T07:57:02.927Z,99241.28
2023-03-16T07:59:29.821Z,99256.38
2023-03-16T08:01:56.673Z,99258.91
2023-03-16T08:04:23.718Z,99256.34
2023-03-16T08:06:52.375Z,99255.47
2023-03-16T08:09:19.236Z,99246.88
2023-03-16T08:11:46.047Z,99245.09
2023-03-16T08:14:13.224Z,99242.44
2023-03-16T08:16:40.029Z,99257.59
2023-03-16T08:19:07.085Z,99258.38
2023-03-16T08:21:35.010Z,99241.34
2023-03-16T08:24:05.119Z,99249.72
2023-03-16T08:26:31.935Z,99241.22
2023-03-16T08:29:02.492Z,99238.66
2023-03-16T08:31:30.341Z,99252.13
2023-03-16T08:33:59.388Z,99261.47
2023-03-16T08:36:27.736Z,99252.06
2023-03-16T08:39:06.087Z,99238.59
2023-03-16T08:41:34.643Z,99251.97
2023-03-16T08:44:02.000Z,99243.47
2023-03-16T08:46:29.295Z,99245.00
2023-03-16T08:48:56.181Z,99213.72
2023-03-16T08:51:23.086Z,99246.53
2023-03-16T08:53:49.883Z,99238.69
2023-03-16T08:56:16.688Z,99234.38
2023-03-16T08:58:45.413Z,99211.50
2023-03-16T09:01:17.578Z,99223.28
2023-03-16T09:03:46.350Z,99218.13
2023-03-16T09:06:15.987Z,99204.66
2023-03-16T09:08:45.440Z,99201.25
2023-03-16T09:11:16.079Z,99197.44
2023-03-16T09:13:44.620Z,99182.97
2023-03-16T09:16:13.796Z,99207.59
2023-03-16T09:18:42.111Z,99195.69
2023-03-16T09:21:10.611Z,99214.91
2023-03-16T09:23:41.753Z,99204.56
2023-03-16T09:26:09.476Z,99217.28
2023-03-16T09:28:38.949Z,99185.00
2023-03-16T09:31:07.031Z,99204.28
2023-03-16T09:33:35.356Z,99166.03
2023-03-16T09:36:03.573Z,99201.47
2023-03-16T09:38:32.136Z,99190.31
2023-03-16T09:41:16.360Z,99178.16
2023-03-16T09:44:02.941Z,99174.53
2023-03-16T09:46:40.544Z,99180.38
2023-03-16T09:49:16.021Z,99176.91
2023-03-16T09:51:53.076Z,99168.25
2023-03-16T09:54:42.282Z,99183.34
2023-03-16T09:57:42.281Z,99168.44
2023-03-16T10:00:21.920Z,99165.78
2023-03-16T10:03:29.742Z,99149.41
2023-03-16T10:06:02.146Z,99145.97
2023-03-16T10:08:40.806Z,99131.31
2023-03-16T10:11:35.633Z,99143.50
2023-03-16T10:14:46.718Z,99149.16
2023-03-16T10:17:17.793Z,99137.00
2023-03-16T10:20:08.948Z,99136.03
2023-03-16T10:22:40.953Z,99128.53
2023-03-16T10:25:38.786Z,99122.41
2023-03-16T10:28:05.683Z,99141.66
2023-03-16T10:30:36.201Z,99124.69
2023-03-16T10:33:26.625Z,99161.28
2023-03-16T10:36:02.545Z,99156.19
2023-03-16T10:38:46.719Z,99149.34
2023-03-16T10:41:22.317Z,99143.44
2023-03-16T10:44:29.885Z,99121.72
2023-03-16T10:47:05.995Z,99135.16
2023-03-16T10:49:44.330Z,99128.16
2023-03-16T10:52:23.491Z,99127.94
2023-03-16T10:55:00.424Z,99115.75
2023-03-16T10:57:35.331Z,99083.66
2023-03-16T11:00:16.145Z,99107.84
2023-03-16T11:02:44.007Z,99100.97
2023-03-16T11:05:19.608Z,99116.75
2023-03-16T11:07:52.300Z,99108.03
2023-03-16T11:10:32.330Z,99109.34
2023-03-16T11:13:20.967Z,99112.56
2023-03-16T11:16:31.845Z,99079.81
2023-03-16T11:19:04.875Z,99096.69
2023-03-16T11:21:55.103Z,99096.56
2023-03-16T11:24:35.185Z,99103.97
2023-03-16T11:27:08.559Z,99074.88
2023-03-16T11:29:35.237Z,99106.06
2023-03-16T11:32:06.351Z,99101.03
2023-03-16T11:34:35.261Z,99088.75
2023-03-16T11:37:29.381Z,99076.66
2023-03-16T11:40:40.089Z,99081.63
2023-03-16T11:43:22.133Z,99068.38
2023-03-16T11:46:22.757Z,99075.03
2023-03-16T11:49:12.985Z,99079.69
2023-03-16T11:51:55.865Z,99047.44
2023-03-16T11:55:19.773Z,99049.69
2023-03-16T11:58:22.266Z,99066.44
2023-03-16T12:01:54.356Z,99040.03
2023-03-16T12:05:14.518Z,99048.84
2023-03-16T12:08:01.569Z,99047.63
2023-03-16T12:11:00.300Z,99006.84
2023-03-16T12:13:54.775Z,99044.16
2023-03-16T12:16:46.348Z,99016.09
2023-03-16T12:19:46.995Z,99020.69
2023-03-16T12:22:44.527Z,98985.47
2023-03-16T12:25:22.178Z,99010.28
2023-03-16T12:27:54.484Z,98994.13
2023-03-16T12:31:09.437Z,99004.59
2023-03-16T12:33:40.079Z,99003.03
2023-03-16T12:36:56.840Z,98999.44
2023-03-16T12:40:05.334Z,99008.63
2023-03-16T12:43:02.877Z,99011.00
2023-03-16T12:45:48.352Z,99008.22
2023-03-16T12:48:30.000Z,99001.03
2023-03-16T12:51:00.838Z,99000.75
2023-03-16T12:53:46.879Z,98994.50
2023-03-16T12:56:17.601Z,98997.75
2023-03-16T12:58:50.321Z,98989.06
2023-03-16T13:01:20.704Z,98992.34
2023-03-16T13:03:51.018Z,98981.53
2023-03-16T13:06:36.174Z,98975.03
2023-03-16T13:09:06.053Z,98984.13
2023-03-16T13:11:50.368Z,98980.44
2023-03-16T13:14:42.707Z,98985.47
2023-03-16T13:17:18.553Z,98975.19
2023-03-16T13:19:58.884Z,98963.16
2023-03-16T13:22:40.457Z,98970.56
2023-03-16T13:25:28.417Z,98969.44
2023-03-16T13:27:59.076Z,98963.66
2023-03-16T13:30:33.593Z,98970.69
2023-03-16T13:33:07.103Z,98964.34
2023-03-16T13:35:34.315Z,98954.22
2023-03-16T13:38:15.738Z,98961.59
2023-03-16T13:40:49.418Z,98953.28
2023-03-16T13:43:19.224Z,98958.88
2023-03-16T13:45:46.521Z,98944.41
2023-03-16T13:48:15.210Z,98953.41
2023-03-16T13:50:43.325Z,98933.53
2023-03-16T13:53:23.537Z,98939.03
2023-03-16T13:55:53.521Z,98908.63
2023-03-16T13:58:26.011Z,98949.19
2023-03-16T14:01:05.322Z,98926.56
2023-03-16T14:03:39.441Z,98928.13
2023-03-16T14:06:07.260Z,98929.44
2023-03-16T14:08:34.687Z,98936.44
2023-03-16T14:11:02.634Z,98916.72
2023-03-16T14:13:29.633Z,98932.66
2023-03-16T14:16:04.501Z,98932.44
2023-03-16T14:18:43.355Z,98927.88
2023-03-16T14:21:23.187Z,98899.75
2023-03-16T14:24:04.350Z,98919.78
2023-03-16T14:26:47.135Z,98919.50
2023-03-16T14:29:24.843Z,98908.75
2023-03-16T14:31:51.750Z,98907.78
2023-03-16T14:34:35.173Z,98882.00
2023-03-16T14:37:09.885Z,98877.66
2023-03-16T14:39:37.711Z,98879.97
2023-03-16T14:42:06.913Z,98876.34
2023-03-16T14:44:36.901Z,98856.84
2023-03-16T14:47:06.101Z,98868.22
2023-03-16T14:49:37.488Z,98859.00
2023-03-16T14:52:22.218Z,98877.41
2023-03-16T14:54:49.514Z,98876.34
2023-03-16T14:57:17.788Z,98864.75
2023-03-16T14:59:44.603Z,98865.72
2023-03-16T15:02:20.315Z,98872.19
2023-03-16T15:04:48.716Z,98864.41
2023-03-16T15:07:26.263Z,98869.75
2023-03-16T15:09:55.654Z,98876.63
2023-03-16T15:12:25.021Z,98863.38
2023-03-16T15:15:11.073Z,98870.16
2023-03-16T15:17:38.865Z,98880.88
2023-03-16T15:20:07.141Z,98870.00
2023-03-16T15:22:37.885Z,98864.41
2023-03-16T15:25:41.713Z,98851.06
2023-03-16T15:28:18.161Z,98854.38
2023-03-16T15:30:47.548Z,98866.34
2023-03-16T15:33:15.192Z,98866.50
2023-03-16T15:35:42.930Z,98864.00
2023-03-16T15:38:36.639Z,98850.28
2023-03-16T15:41:03.787Z,98859.97
2023-03-16T15:43:31.979Z,98855.47
2023-03-16T15:46:01.980Z,98850.59
2023-03-16T15:48:28.827Z,98859.81
2023-03-16T15:51:00.157Z,98856.38
2023-03-16T15:53:42.317Z,98862.41
2023-03-16T15:56:17.580Z,98854.63
2023-03-16T15:58:46.661Z,98851.59
2023-03-16T16:01:39.534Z,98864.25
2023-03-16T16:04:13.226Z,98850.09
2023-03-16T16:06:40.165Z,98843.53
2023-03-16T16:09:07.381Z,98852.13
2023-03-16T16:11:34.199Z,98861.38
2023-03-16T16:14:01.559Z,98858.00
2023-03-16T16:16:29.886Z,98871.81
2023-03-16T16:18:56.943Z,98868.38
2023-03-16T16:21:28.910Z,98831.50
2023-03-16T16:23:56.721Z,98838.13
2023-03-16T16:26:53.728Z,98856.63
2023-03-16T16:29:25.040Z,98850.72
2023-03-16T16:31:52.377Z,98849.94
2023-03-16T16:34:24.374Z,98855.22
2023-03-16T16:36:51.786Z,98858.97
2023-03-16T16:39:18.640Z,98834.66
2023-03-16T16:41:46.116Z,98858.78
2023-03-16T16:44:23.731Z,98827.91
2023-03-16T16:46:51.844Z,98844.72
2023-03-16T16:49:23.717Z,98845.19
2023-03-16T16:51:53.325Z,98857.59
2023-03-16T16:54:27.481Z,98849.22
2023-03-16T16:56:56.356Z,98831.88
2023-03-16T16:59:27.289Z,98845.94
2023-03-16T17:01:54.301Z,98842.50
2023-03-16T17:04:25.307Z,98839.25
2023-03-16T17:06:55.596Z,98830.34
2023-03-16T17:09:23.271Z,98849.94
2023-03-16T17:11:51.130Z,98823.13
2023-03-16T17:14:21.198Z,98825.94
2023-03-16T17:16:50.443Z,98843.63
2023-03-16T17:19:25.444Z,98826.09
2023-03-16T17:21:55.369Z,98850.53
2023-03-16T17:24:22.697Z,98843.16
2023-03-16T17:26:56.072Z,98843.31
2023-03-16T17:29:34.354Z,98827.50
2023-03-16T17:32:12.237Z,98834.66
2023-03-16T17:34:39.512Z,98830.00
2023-03-16T17:37:13.206Z,98836.91
2023-03-16T17:39:40.377Z,98836.31
2023-03-16T17:42:14.084Z,98832.34
2023-03-16T17:44:44.755Z,98839.22
2023-03-16T17:47:26.452Z,98843.47
2023-03-16T17:49:53.865Z,98841.81
2023-03-16T17:52:25.294Z,98841.16
2023-03-16T17:54:53.728Z,98834.75
2023-03-16T17:57:29.817Z,98835.69
2023-03-16T17:59:56.894Z,98850.91
2023-03-16T18:03:04.451Z,98849.31
2023-03-16T18:05:34.560Z,98836.75
2023-03-16T18:08:25.819Z,98845.88
2023-03-16T18:11:00.391Z,98839.50
2023-03-16T18:13:32.523Z,98834.81
2023-03-16T18:16:00.468Z,98847.69
2023-03-16T18:18:30.549Z,98845.94
2023-03-16T18:20:59.636Z,98835.13
2023-03-16T18:23:31.835Z,98844.03
2023-03-16T18:26:04.009Z,98851.19
2023-03-16T18:28:31.991Z,98837.88
2023-03-16T18:31:00.021Z,98852.47
2023-03-16T18:33:47.059Z,98851.44
2023-03-16T18:36:38.028Z,98799.59
2023-03-16T18:39:10.308Z,98843.78
2023-03-16T18:41:37.446Z,98848.34
2023-03-16T18:44:18.688Z,98842.34
2023-03-16T18:46:47.092Z,98815.88
2023-03-16T18:49:40.191Z,98831.03
2023-03-16T18:52:19.069Z,98851.44
2023-03-16T18:54:47.040Z,98829.75
2023-03-16T18:57:24.023Z,98843.19
2023-03-16T18:59:51.172Z,98843.34
2023-03-16T19:02:41.354Z,98833.78
2023-03-16T19:05:25.465Z,98836.44
2023-03-16T19:07:53.253Z,98808.72
2023-03-16T19:10:37.052Z,98822.34
2023-03-16T19:13:10.929Z,98824.84
2023-03-16T19:15:39.238Z,98825.16
2023-03-16T19:18:06.264Z,98837.53
2023-03-16T19:20:34.932Z,98829.63
2023-03-16T19:23:06.841Z,98832.50
2023-03-16T19:25:40.193Z,98812.66
2023-03-16T19:28:14.630Z,98833.47
2023-03-16T19:30:41.809Z,98830.81
2023-03-16T19:33:20.786Z,98799.78
2023-03-16T19:35:51.819Z,98830.19
2023-03-16T19:38:20.813Z,98832.91
2023-03-16T19:40:53.421Z,98821.94
2023-03-16T19:43:21.991Z,98823.41
2023-03-16T19:45:49.828Z,98809.28
2023-03-16T19:48:21.083Z,98823.47
2023-03-16T19:50:50.581Z,98825.22
2023-03-16T19:53:20.906Z,98830.41
2023-03-16T19:55:51.788Z,98824.31
2023-03-16T19:58:32.017Z,98814.28
2023-03-16T20:01:01.031Z,98816.84
2023-03-16T20:03:30.156Z,98818.28
2023-03-16T20:05:56.976Z,98823.41
2023-03-16T20:08:27.782Z,98831.09
2023-03-16T20:11:02.574Z,98829.47
2023-03-16T20:13:31.436Z,98807.31
2023-03-16T20:15:58.399Z,98814.81
2023-03-16T20:18:25.528Z,98788.97
2023-03-16T20:20:52.316Z,98814.03
2023-03-16T20:23:29.940Z,98822.72
2023-03-16T20:26:02.694Z,98821.88
2023-03-16T20:28:37.772Z,98811.78
2023-03-16T20:31:08.082Z,98817.81
2023-03-16T20:33:35.112Z,98811.75
2023-03-16T20:36:02.035Z,98811.88
2023-03-16T20:38:28.872Z,98812.16
2023-03-16T20:40:56.021Z,98814.59
2023-03-16T20:43:30.591Z,98819.78
2023-03-16T20:46:03.919Z,98814.13
2023-03-16T20:48:31.054Z,98813.34
2023-03-16T20:51:00.514Z,98819.94
2023-03-16T20:53:27.542Z,98802.66
2023-03-16T20:55:54.709Z,98803.16
2023-03-16T20:58:27.990Z,98812.38
2023-03-16T21:01:00.973Z,98810.78
2023-03-16T21:03:30.833Z,98813.34
2023-03-16T21:05:59.811Z,98807.47
2023-03-16T21:08:28.630Z,98781.50
2023-03-16T21:10:57.123Z,98795.03
2023-03-16T21:13:41.947Z,98806.72
2023-03-16T21:16:11.194Z,98785.97
2023-03-16T21:18:38.077Z,98790.94
2023-03-16T21:21:05.361Z,98803.56
2023-03-16T21:23:32.253Z,98780.72
2023-03-16T21:26:03.818Z,98785.16
2023-03-16T21:28:34.534Z,98791.97
2023-03-16T21:31:02.921Z,98784.44
2023-03-16T21:33:51.928Z,98787.72
2023-03-16T21:36:23.210Z,98778.69
2023-03-16T21:38:51.596Z,98781.22
2023-03-16T21:41:19.103Z,98790.41
2023-03-16T21:43:47.142Z,98780.38
2023-03-16T21:46:25.528Z,98788.91
2023-03-16T21:48:56.212Z,98784.63
2023-03-16T21:51:31.111Z,98783.84
2023-03-16T21:53:58.243Z,98752.78
2023-03-16T21:56:26.173Z,98778.97
2023-03-16T21:58:54.183Z,98770.44
2023-03-16T22:01:28.160Z,98779.88
2023-03-16T22:04:05.090Z,98770.59
2023-03-16T22:06:32.332Z,98773.94
2023-03-16T22:09:00.181Z,98762.06
2023-03-16T22:11:30.158Z,98768.91
2023-03-16T22:13:59.279Z,98733.72
2023-03-16T22:16:29.995Z,98769.03
2023-03-16T22:18:57.965Z,98768.22
2023-03-16T22:21:43.873Z,98752.91
2023-03-16T22:24:25.075Z,98761.50
2023-03-16T22:26:52.138Z,98752.22
2023-03-16T22:29:31.653Z,98753.84
2023-03-16T22:32:06.894Z,98749.69
2023-03-16T22:34:45.288Z,98759.13
2023-03-16T22:37:25.091Z,98763.47
2023-03-16T22:39:53.110Z,98754.09
2023-03-16T22:42:36.959Z,98746.56
2023-03-16T22:45:18.908Z,98741.47
2023-03-16T22:47:47.716Z,98744.03
2023-03-16T22:50:17.887Z,98742.34
2023-03-16T22:52:48.472Z,98738.94
2023-03-16T22:55:31.567Z,98724.78
2023-03-16T22:58:34.556Z,98690.53
2023-03-16T23:01:15.212Z,98722.38
2023-03-16T23:03:42.095Z,98715.63
2023-03-16T23:06:21.570Z,98736.75
2023-03-16T23:08:49.854Z,98734.19
2023-03-16T23:11:28.572Z,98728.25
2023-03-16T23:13:55.930Z,98698.22
2023-03-16T23:16:29.177Z,98722.59
2023-03-16T23:18:56.826Z,98725.16
2023-03-16T23:21:26.289Z,98722.66
2023-03-16T23:24:03.699Z,98723.53
2023-03-16T23:26:31.229Z,98701.13
2023-03-16T23:28:58.730Z,98714.34
2023-03-16T23:31:27.210Z,98712.09
2023-03-16T23:33:54.201Z,98725.63
2023-03-16T23:36:24.548Z,98714.38
2023-03-16T23:38:51.821Z,98711.06
2023-03-16T23:41:22.844Z,98708.53
2023-03-16T23:43:50.790Z,98715.50
2023-03-16T23:46:20.732Z,98713.16
2023-03-16T23:48:49.639Z,98715.69
2023-03-16T23:51:23.383Z,98698.03
2023-03-16T23:53:50.538Z,98680.44
2023-03-16T23:56:17.901Z,98715.03
2023-03-16T23:58:44.808Z,98689.97
